createdAt,value
2023-01-21T00:01:19.693Z,101207.94
2023-01-21T00:04:21.975Z,101198.41
2023-01-21T00:07:26.027Z,101201.47
2023-01-21T00:10:28.317Z,101198.88
2023-01-21T00:13:30.631Z,101200.44
2023-01-21T00:16:32.942Z,101184.00
2023-01-21T00:19:35.348Z,101191.38
2023-01-21T00:22:37.829Z,101175.84
2023-01-21T00:25:40.226Z,101168.47
2023-01-21T00:28:43.734Z,101181.94
2023-01-21T00:31:46.334Z,101185.94
2023-01-21T00:34:48.961Z,101181.84
2023-01-21T00:37:54.385Z,101188.16
2023-01-21T00:41:07.665Z,101179.63
2023-01-21T00:44:10.189Z,101187.75
2023-01-21T00:47:12.459Z,101182.31
2023-01-21T00:50:14.980Z,101192.50
2023-01-21T00:53:18.523Z,101194.31
2023-01-21T00:56:20.911Z,101197.84
2023-01-21T00:59:23.543Z,101205.31
2023-01-21T01:02:25.849Z,101203.69
2023-01-21T01:05:28.345Z,101183.25
2023-01-21T01:08:30.624Z,101185.34
2023-01-21T01:11:32.914Z,101195.41
2023-01-21T01:14:35.164Z,101192.84
2023-01-21T01:17:37.710Z,101189.63
2023-01-21T01:20:43.727Z,101193.31
2023-01-21T01:23:46.751Z,101189.97
2023-01-21T01:26:49.107Z,101178.13
2023-01-21T01:29:51.427Z,101204.34
2023-01-21T01:32:53.677Z,101205.53
2023-01-21T01:35:56.155Z,101205.06
2023-01-21T01:38:59.192Z,101203.72
2023-01-21T01:42:02.894Z,101184.91
2023-01-21T01:45:07.794Z,101180.50
2023-01-21T01:48:12.827Z,101173.44
2023-01-21T01:51:18.311Z,101181.78
2023-01-21T01:54:24.201Z,101188.81
2023-01-21T01:57:32.060Z,101219.44
2023-01-21T02:00:34.913Z,101198.97
2023-01-21T02:03:45.980Z,101197.25
2023-01-21T02:06:48.948Z,101210.25
2023-01-21T02:09:53.447Z,101211.38
2023-01-21T02:12:55.753Z,101223.66
2023-01-21T02:16:14.375Z,101196.00
2023-01-21T02:19:42.367Z,101199.72
2023-01-21T02:23:05.208Z,101211.94
2023-01-21T02:26:19.344Z,101218.97
2023-01-21T02:29:24.223Z,101204.72
2023-01-21T02:32:40.474Z,101202.03
2023-01-21T02:36:01.244Z,101198.97
2023-01-21T02:39:12.630Z,101199.88
2023-01-21T02:42:26.699Z,101211.38
2023-01-21T02:45:31.527Z,101220.06
2023-01-21T02:48:37.974Z,101220.59
2023-01-21T02:51:40.300Z,101218.31
2023-01-21T02:54:42.554Z,101203.06
2023-01-21T02:57:51.231Z,101201.66
2023-01-21T03:01:11.411Z,101181.59
2023-01-21T03:04:36.587Z,101185.56
2023-01-21T03:07:41.579Z,101199.63
2023-01-21T03:10:56.207Z,101194.88
2023-01-21T03:14:24.999Z,101184.34
2023-01-21T03:17:35.668Z,101181.66
2023-01-21T03:20:46.842Z,101171.41
2023-01-21T03:23:51.599Z,101162.47
2023-01-21T03:26:57.923Z,101165.97
2023-01-21T03:30:04.939Z,101169.03
2023-01-21T03:33:07.875Z,101164.97
2023-01-21T03:36:21.683Z,101169.84
2023-01-21T03:39:53.679Z,101177.50
2023-01-21T03:42:56.615Z,101178.91
2023-01-21T03:46:12.368Z,101161.41
2023-01-21T03:49:22.495Z,101166.06
2023-01-21T03:52:25.988Z,101150.97
2023-01-21T03:55:28.299Z,101157.53
2023-01-21T03:58:30.600Z,101142.19
2023-01-21T04:01:33.017Z,101137.94
2023-01-21T04:04:35.296Z,101145.22
2023-01-21T04:07:37.655Z,101153.00
2023-01-21T04:10:39.893Z,101152.06
2023-01-21T04:13:42.202Z,101137.84
2023-01-21T04:16:44.548Z,101163.66
2023-01-21T04:19:46.852Z,101156.88
2023-01-21T04:22:49.193Z,101142.19
2023-01-21T04:25:52.598Z,101139.97
2023-01-21T04:28:55.173Z,101123.69
2023-01-21T04:31:57.513Z,101122.16
2023-01-21T04:34:59.890Z,101126.97
2023-01-21T04:38:02.198Z,101133.97
2023-01-21T04:41:04.525Z,101128.53
2023-01-21T04:44:06.994Z,101125.59
2023-01-21T04:47:09.296Z,101135.00
2023-01-21T04:50:12.404Z,101131.22
2023-01-21T04:53:14.793Z,101129.38
2023-01-21T04:56:17.035Z,101144.38
2023-01-21T04:59:19.418Z,101125.59
2023-01-21T05:02:21.856Z,101129.91
2023-01-21T05:05:24.235Z,101138.91
2023-01-21T05:08:26.581Z,101138.06
2023-01-21T05:11:28.898Z,101139.94
2023-01-21T05:14:31.266Z,101136.88
2023-01-21T05:17:33.611Z,101146.28
2023-01-21T05:20:35.860Z,101137.97
2023-01-21T05:23:38.175Z,101146.78
2023-01-21T05:26:40.575Z,101157.56
2023-01-21T05:29:42.941Z,101141.13
2023-01-21T05:32:45.192Z,101134.91
2023-01-21T05:35:47.475Z,101148.69
2023-01-21T05:38:49.790Z,101132.22
2023-01-21T05:41:52.105Z,101143.22
2023-01-21T05:44:54.459Z,101129.53
2023-01-21T05:47:56.763Z,101139.94
2023-01-21T05:50:59.352Z,101131.66
2023-01-21T05:54:01.688Z,101130.31
2023-01-21T05:57:04.159Z,101142.88
2023-01-21T06:00:07.178Z,101136.75
2023-01-21T06:03:10.013Z,101131.88
2023-01-21T06:06:12.244Z,101132.88
2023-01-21T06:09:14.565Z,101140.53
2023-01-21T06:12:16.831Z,101146.28
2023-01-21T06:15:20.142Z,101164.16
2023-01-21T06:18:23.321Z,101152.97
2023-01-21T06:21:25.660Z,101162.13
2023-01-21T06:24:28.031Z,101170.16
2023-01-21T06:27:30.407Z,101149.91
2023-01-21T06:30:32.779Z,101156.91
2023-01-21T06:33:35.144Z,101152.75
2023-01-21T06:36:37.479Z,101156.19
2023-01-21T06:39:39.734Z,101160.09
2023-01-21T06:42:42.084Z,101159.28
2023-01-21T06:45:44.497Z,101155.50
2023-01-21T06:48:46.865Z,101160.53
2023-01-21T06:51:50.498Z,101156.19
2023-01-21T06:54:52.749Z,101171.00
2023-01-21T06:57:55.079Z,101164.63
2023-01-21T07:00:57.871Z,101159.97
2023-01-21T07:04:01.625Z,101166.97
2023-01-21T07:07:03.920Z,101169.72
2023-01-21T07:10:06.844Z,101177.63
2023-01-21T07:13:09.178Z,101162.63
2023-01-21T07:16:11.607Z,101177.16
2023-01-21T07:19:14.528Z,101182.22
2023-01-21T07:22:16.904Z,101156.31
2023-01-21T07:25:19.440Z,101163.91
2023-01-21T07:28:21.901Z,101147.69
2023-01-21T07:31:24.341Z,101146.13
2023-01-21T07:34:26.661Z,101153.88
2023-01-21T07:37:29.006Z,101126.84
2023-01-21T07:40:31.256Z,101131.28
2023-01-21T07:43:33.625Z,101117.72
2023-01-21T07:46:36.307Z,101134.00
2023-01-21T07:49:38.761Z,101138.09
2023-01-21T07:52:41.290Z,101114.38
2023-01-21T07:55:43.609Z,101087.13
2023-01-21T07:58:47.193Z,101109.88
2023-01-21T08:01:49.597Z,101111.22
2023-01-21T08:04:52.043Z,101108.53
2023-01-21T08:07:57.779Z,101106.06
2023-01-21T08:11:00.116Z,101081.13
2023-01-21T08:14:02.491Z,101078.19
2023-01-21T08:17:05.052Z,101052.88
2023-01-21T08:20:09.828Z,101055.25
2023-01-21T08:23:12.358Z,101055.13
2023-01-21T08:26:14.621Z,101056.41
2023-01-21T08:29:17.660Z,101046.06
2023-01-21T08:32:20.038Z,101043.19
2023-01-21T08:35:22.431Z,101039.50
2023-01-21T08:38:24.740Z,101035.06
2023-01-21T08:41:26.966Z,101030.81
2023-01-21T08:44:29.429Z,101032.47
2023-01-21T08:47:31.764Z,101008.25
2023-01-21T08:50:34.134Z,101023.31
2023-01-21T08:53:36.460Z,101029.34
2023-01-21T08:56:39.065Z,101034.84
2023-01-21T08:59:41.433Z,101029.16
2023-01-21T09:02:43.822Z,101021.47
2023-01-21T09:05:47.115Z,101028.13
2023-01-21T09:08:49.595Z,101028.38
2023-01-21T09:11:52.811Z,101039.50
2023-01-21T09:14:55.152Z,101034.22
2023-01-21T09:17:57.440Z,101024.72
2023-01-21T09:21:04.374Z,101050.09
2023-01-21T09:24:07.134Z,101020.34
2023-01-21T09:27:10.259Z,101043.19
2023-01-21T09:30:12.775Z,101035.16
2023-01-21T09:33:15.987Z,101047.25
2023-01-21T09:36:21.174Z,101027.84
2023-01-21T09:39:23.710Z,101046.81
2023-01-21T09:42:26.109Z,101040.09
2023-01-21T09:45:28.530Z,101046.16
2023-01-21T09:48:37.505Z,101040.25
2023-01-21T09:52:14.435Z,101046.44
2023-01-21T09:55:29.430Z,101058.47
2023-01-21T09:58:42.756Z,101048.59
2023-01-21T10:01:45.343Z,101056.50
2023-01-21T10:04:51.958Z,101065.47
2023-01-21T10:07:57.714Z,101069.19
2023-01-21T10:11:18.846Z,101091.13
2023-01-21T10:14:45.805Z,101079.59
2023-01-21T10:18:16.169Z,101080.41
2023-01-21T10:22:00.511Z,101073.72
2023-01-21T10:25:31.490Z,101085.38
2023-01-21T10:28:34.404Z,101071.63
2023-01-21T10:31:41.338Z,101067.63
2023-01-21T10:34:51.906Z,101075.44
2023-01-21T10:38:10.683Z,101064.94
2023-01-21T10:41:18.678Z,101064.06
2023-01-21T10:44:21.028Z,101072.69
2023-01-21T10:47:35.240Z,101062.81
2023-01-21T10:50:55.595Z,101068.06
2023-01-21T10:54:00.656Z,101056.50
2023-01-21T10:57:31.102Z,101071.03
2023-01-21T11:00:37.197Z,101032.16
2023-01-21T11:03:48.880Z,101061.97
2023-01-21T11:07:02.109Z,101045.50
2023-01-21T11:10:06.412Z,101048.72
2023-01-21T11:13:12.689Z,101046.63
2023-01-21T11:16:31.778Z,101045.13
2023-01-21T11:19:34.227Z,101045.50
2023-01-21T11:22:43.734Z,101038.59
2023-01-21T11:25:46.048Z,101034.16
2023-01-21T11:28:48.312Z,101029.69
2023-01-21T11:32:04.116Z,101036.53
2023-01-21T11:35:19.503Z,101044.78
2023-01-21T11:38:42.537Z,101034.59
2023-01-21T11:41:52.855Z,101045.97
2023-01-21T11:45:01.557Z,101047.09
2023-01-21T11:48:19.809Z,101039.38
2023-01-21T11:51:22.213Z,101042.34
2023-01-21T11:54:25.242Z,101050.13
2023-01-21T11:57:29.969Z,101050.50
2023-01-21T12:00:37.027Z,101052.72
2023-01-21T12:03:46.765Z,101054.78
2023-01-21T12:06:51.720Z,101065.78
2023-01-21T12:10:35.203Z,101062.53
2023-01-21T12:13:46.179Z,101066.59
2023-01-21T12:16:51.083Z,101066.03
2023-01-21T12:20:23.964Z,101086.34
2023-01-21T12:23:49.835Z,101057.81
2023-01-21T12:27:04.984Z,101074.41
2023-01-21T12:30:16.539Z,101075.59
2023-01-21T12:33:34.045Z,101090.59
2023-01-21T12:36:50.632Z,101082.34
2023-01-21T12:39:54.888Z,101084.09
2023-01-21T12:43:02.870Z,101078.38
2023-01-21T12:46:21.661Z,101083.63
2023-01-21T12:49:43.018Z,101086.78
2023-01-21T12:53:00.413Z,101074.31
2023-01-21T12:56:45.283Z,101086.13
2023-01-21T12:59:53.349Z,101085.88
2023-01-21T13:03:33.219Z,101089.56
2023-01-21T13:06:53.713Z,101089.16
2023-01-21T13:10:10.076Z,101102.94
2023-01-21T13:13:12.405Z,101101.28
2023-01-21T13:16:14.913Z,101107.72
2023-01-21T13:19:17.414Z,101099.69
2023-01-21T13:22:31.434Z,101113.97
2023-01-21T13:25:54.995Z,101108.97
2023-01-21T13:28:59.817Z,101108.97
2023-01-21T13:32:02.094Z,101116.84
2023-01-21T13:35:32.136Z,101113.88
2023-01-21T13:39:00.625Z,101127.00
2023-01-21T13:42:34.824Z,101144.41
2023-01-21T13:45:52.873Z,101144.59
2023-01-21T13:49:03.998Z,101136.47
2023-01-21T13:52:12.172Z,101145.53
2023-01-21T13:55:21.331Z,101153.78
2023-01-21T13:58:31.060Z,101164.56
2023-01-21T14:01:44.637Z,101153.81
2023-01-21T14:04:51.447Z,101168.00
2023-01-21T14:08:17.351Z,101181.66
2023-01-21T14:11:30.625Z,101184.25
2023-01-21T14:14:50.822Z,101194.22
2023-01-21T14:18:17.157Z,101190.34
2023-01-21T14:21:25.256Z,101192.47
2023-01-21T14:24:30.337Z,101196.75
2023-01-21T14:27:38.409Z,101199.22
2023-01-21T14:30:42.234Z,101198.50
2023-01-21T14:33:46.156Z,101199.69
2023-01-21T14:37:11.338Z,101209.16
2023-01-21T14:40:24.711Z,101211.91
2023-01-21T14:43:32.749Z,101223.03
2023-01-21T14:46:35.128Z,101226.50
2023-01-21T14:49:42.592Z,101226.19
2023-01-21T14:52:46.293Z,101228.69
2023-01-21T14:56:10.736Z,101239.09
2023-01-21T14:59:24.886Z,101240.22
2023-01-21T15:02:32.217Z,101243.09
2023-01-21T15:05:36.672Z,101244.13
2023-01-21T15:08:45.551Z,101241.09
2023-01-21T15:11:53.379Z,101251.31
2023-01-21T15:15:00.270Z,101249.03
2023-01-21T15:18:35.591Z,101266.19
2023-01-21T15:21:43.834Z,101258.66
2023-01-21T15:25:14.634Z,101249.53
2023-01-21T15:28:56.389Z,101266.56
2023-01-21T15:32:32.646Z,101271.06
2023-01-21T15:35:36.976Z,101271.19
2023-01-21T15:38:41.625Z,101275.25
2023-01-21T15:41:50.464Z,101262.53
2023-01-21T15:45:17.532Z,101272.41
2023-01-21T15:48:46.317Z,101275.63
2023-01-21T15:52:05.537Z,101277.84
2023-01-21T15:55:24.246Z,101285.28
2023-01-21T15:59:00.200Z,101289.91
2023-01-21T16:02:25.038Z,101296.56
2023-01-21T16:05:49.057Z,101296.19
2023-01-21T16:09:02.757Z,101305.41
2023-01-21T16:12:25.409Z,101311.41
2023-01-21T16:16:10.857Z,101316.22
2023-01-21T16:19:38.320Z,101321.88
2023-01-21T16:22:44.421Z,101318.72
2023-01-21T16:25:51.490Z,101320.88
2023-01-21T16:28:54.713Z,101335.63
2023-01-21T16:31:59.664Z,101338.88
2023-01-21T16:35:02.091Z,101342.31
2023-01-21T16:38:04.422Z,101343.16
2023-01-21T16:41:09.384Z,101348.31
2023-01-21T16:44:16.240Z,101340.47
2023-01-21T16:47:23.294Z,101363.00
2023-01-21T16:50:27.929Z,101357.91
2023-01-21T16:53:30.253Z,101366.97
2023-01-21T16:56:32.613Z,101362.69
2023-01-21T16:59:41.721Z,101368.03
2023-01-21T17:02:44.104Z,101375.25
2023-01-21T17:05:53.737Z,101369.94
2023-01-21T17:09:02.096Z,101385.81
2023-01-21T17:12:11.091Z,101388.00
2023-01-21T17:15:36.346Z,101392.81
2023-01-21T17:18:41.452Z,101394.16
2023-01-21T17:21:45.989Z,101405.19
2023-01-21T17:25:07.658Z,101407.88
2023-01-21T17:28:24.812Z,101411.78
2023-01-21T17:31:32.037Z,101409.03
2023-01-21T17:34:36.594Z,101419.78
2023-01-21T17:37:59.793Z,101432.13
2023-01-21T17:41:03.760Z,101424.53
2023-01-21T17:44:16.850Z,101422.91
2023-01-21T17:48:01.274Z,101427.66
2023-01-21T17:51:13.158Z,101450.81
2023-01-21T17:54:23.770Z,101453.63
2023-01-21T17:57:36.850Z,101465.66
2023-01-21T18:00:44.449Z,101461.84
2023-01-21T18:03:47.014Z,101472.50
2023-01-21T18:06:50.906Z,101465.34
2023-01-21T18:09:53.483Z,101470.31
2023-01-21T18:12:57.932Z,101482.22
2023-01-21T18:16:00.376Z,101476.00
2023-01-21T18:19:02.765Z,101481.28
2023-01-21T18:22:07.055Z,101478.44
2023-01-21T18:25:11.544Z,101499.41
2023-01-21T18:28:18.641Z,101483.84
2023-01-21T18:31:21.586Z,101496.72
2023-01-21T18:34:23.984Z,101501.69
2023-01-21T18:37:26.433Z,101507.09
2023-01-21T18:40:28.771Z,101502.56
2023-01-21T18:43:31.273Z,101509.78
2023-01-21T18:46:33.752Z,101514.31
2023-01-21T18:49:36.100Z,101509.09
2023-01-21T18:52:38.417Z,101511.25
2023-01-21T18:55:44.007Z,101518.50
2023-01-21T18:58:46.500Z,101527.84
2023-01-21T19:01:49.108Z,101526.34
2023-01-21T19:04:51.401Z,101524.44
2023-01-21T19:07:53.725Z,101518.84
2023-01-21T19:10:56.158Z,101533.13
2023-01-21T19:13:58.500Z,101534.66
2023-01-21T19:17:00.854Z,101537.84
2023-01-21T19:20:03.149Z,101537.41
2023-01-21T19:23:07.212Z,101539.81
2023-01-21T19:26:13.823Z,101540.75
2023-01-21T19:29:21.642Z,101539.81
2023-01-21T19:32:23.966Z,101554.59
2023-01-21T19:35:36.363Z,101558.19
2023-01-21T19:38:38.771Z,101558.53
2023-01-21T19:41:41.020Z,101570.91
2023-01-21T19:44:43.740Z,101571.59
2023-01-21T19:47:48.029Z,101578.72
2023-01-21T19:50:50.584Z,101572.28
2023-01-21T19:53:52.915Z,101587.16
2023-01-21T19:56:55.233Z,101597.00
2023-01-21T19:59:58.567Z,101591.66
2023-01-21T20:03:01.731Z,101591.34
2023-01-21T20:06:04.214Z,101585.84
2023-01-21T20:09:06.881Z,101601.06
2023-01-21T20:12:12.504Z,101603.75
2023-01-21T20:15:20.265Z,101606.75
2023-01-21T20:18:27.579Z,101594.22
2023-01-21T20:21:29.883Z,101618.00
2023-01-21T20:24:34.237Z,101608.78
2023-01-21T20:27:36.807Z,101619.34
2023-01-21T20:30:39.107Z,101612.28
2023-01-21T20:33:43.822Z,101619.31
2023-01-21T20:36:49.033Z,101616.31
2023-01-21T20:39:52.783Z,101636.69
2023-01-21T20:42:56.247Z,101640.44
2023-01-21T20:46:01.521Z,101636.53
2023-01-21T20:49:03.830Z,101638.75
2023-01-21T20:52:06.116Z,101651.25
2023-01-21T20:55:08.877Z,101653.44
2023-01-21T20:58:13.897Z,101666.34
2023-01-21T21:01:18.003Z,101660.66
2023-01-21T21:04:20.393Z,101657.84
2023-01-21T21:07:26.060Z,101650.81
2023-01-21T21:10:37.486Z,101667.06
2023-01-21T21:13:39.805Z,101668.50
2023-01-21T21:16:42.225Z,101663.19
2023-01-21T21:19:44.778Z,101676.25
2023-01-21T21:22:47.503Z,101675.22
2023-01-21T21:25:49.955Z,101681.28
2023-01-21T21:28:57.477Z,101690.50
2023-01-21T21:32:02.512Z,101688.16
2023-01-21T21:35:26.543Z,101688.44
2023-01-21T21:38:28.810Z,101688.63
2023-01-21T21:41:49.953Z,101685.47
2023-01-21T21:44:52.273Z,101696.81
2023-01-21T21:48:13.423Z,101690.69
2023-01-21T21:51:20.023Z,101700.19
2023-01-21T21:54:23.759Z,101713.09
2023-01-21T21:57:26.101Z,101710.47
2023-01-21T22:00:28.891Z,101721.00
2023-01-21T22:03:31.350Z,101706.91
2023-01-21T22:06:33.999Z,101718.94
2023-01-21T22:09:36.284Z,101710.44
2023-01-21T22:12:38.608Z,101718.28
2023-01-21T22:15:40.997Z,101712.22
2023-01-21T22:18:43.874Z,101714.09
2023-01-21T22:21:46.305Z,101714.09
2023-01-21T22:24:48.599Z,101720.63
2023-01-21T22:27:50.917Z,101733.50
2023-01-21T22:30:53.365Z,101724.91
2023-01-21T22:33:56.474Z,101734.81
2023-01-21T22:36:58.991Z,101738.31
2023-01-21T22:40:01.285Z,101748.06
2023-01-21T22:43:03.639Z,101736.34
2023-01-21T22:46:06.181Z,101726.78
2023-01-21T22:49:09.744Z,101740.38
2023-01-21T22:52:11.990Z,101744.56
2023-01-21T22:55:14.348Z,101753.28
2023-01-21T22:58:16.792Z,101750.91
2023-01-21T23:01:27.020Z,101744.50
2023-01-21T23:04:29.467Z,101758.78
2023-01-21T23:07:32.647Z,101754.41
2023-01-21T23:10:35.036Z,101770.16
2023-01-21T23:13:37.531Z,101771.00
2023-01-21T23:16:40.204Z,101777.84
2023-01-21T23:19:42.928Z,101780.91
2023-01-21T23:22:45.281Z,101781.34
2023-01-21T23:25:48.095Z,101787.06
2023-01-21T23:28:54.953Z,101787.69
2023-01-21T23:31:58.509Z,101786.22
2023-01-21T23:35:00.853Z,101786.72
2023-01-21T23:38:03.920Z,101780.34
2023-01-21T23:41:07.431Z,101782.69
2023-01-21T23:44:10.847Z,101783.03
2023-01-21T23:47:13.263Z,101787.41
2023-01-21T23:50:15.937Z,101790.56
2023-01-21T23:53:18.453Z,101793.25
2023-01-21T23:56:22.837Z,101778.00
2023-01-21T23:59:25.209Z,101789.75
